createdAt,value
2018-02-08T00:00:10.825Z,-2.06
2018-02-08T00:01:10.981Z,-2.09
2018-02-08T00:02:10.809Z,-2.09
2018-02-08T00:03:10.465Z,-2.20
2018-02-08T00:04:10.464Z,-2.13
2018-02-08T00:05:10.350Z,-2.12
2018-02-08T00:06:10.340Z,-2.10
2018-02-08T00:07:11.262Z,-1.98
2018-02-08T00:08:10.330Z,-2.12
2018-02-08T00:09:10.333Z,-1.91
2018-02-08T00:10:10.301Z,-2.06
2018-02-08T00:11:10.310Z,-2.20
2018-02-08T00:12:10.289Z,-2.10
2018-02-08T00:13:10.278Z,-2.18
2018-02-08T00:14:10.355Z,-2.21
2018-02-08T00:15:10.332Z,-2.15
2018-02-08T00:16:10.332Z,-2.16
2018-02-08T00:17:10.265Z,-2.23
2018-02-08T00:18:10.276Z,-2.27
2018-02-08T00:19:10.309Z,-2.21
2018-02-08T00:20:10.271Z,-2.24
2018-02-08T00:21:10.302Z,-2.27
2018-02-08T00:22:10.296Z,-2.23
2018-02-08T00:23:10.246Z,-2.30
2018-02-08T00:24:10.239Z,-2.20
2018-02-08T00:25:10.258Z,-2.21
2018-02-08T00:26:10.287Z,-2.20
2018-02-08T00:27:10.293Z,-2.13
2018-02-08T00:28:10.250Z,-2.30
2018-02-08T00:29:10.261Z,-2.27
2018-02-08T00:30:10.226Z,-2.27
2018-02-08T00:31:10.247Z,-2.24
2018-02-08T00:32:10.245Z,-2.24
2018-02-08T00:33:10.193Z,-2.27
2018-02-08T00:34:10.184Z,-2.27
2018-02-08T00:35:10.184Z,-2.29
2018-02-08T00:36:10.197Z,-2.32
2018-02-08T00:37:10.196Z,-2.24
2018-02-08T00:38:10.200Z,-2.26
2018-02-08T00:39:10.212Z,-2.18
2018-02-08T00:40:10.157Z,-2.24
2018-02-08T00:41:10.207Z,-2.35
2018-02-08T00:42:10.219Z,-2.32
2018-02-08T00:43:10.165Z,-2.26
2018-02-08T00:44:10.141Z,-2.32
2018-02-08T00:45:10.167Z,-2.27
2018-02-08T00:46:10.170Z,-2.35
2018-02-08T00:47:10.136Z,-2.32
2018-02-08T00:48:10.127Z,-2.32
2018-02-08T00:49:10.171Z,-2.42
2018-02-08T00:50:10.121Z,-2.48
2018-02-08T00:51:10.107Z,-2.43
2018-02-08T00:52:10.167Z,-2.45
2018-02-08T00:53:10.134Z,-2.50
2018-02-08T00:54:10.166Z,-2.46
2018-02-08T00:55:10.170Z,-2.45
2018-02-08T00:56:10.106Z,-2.43
2018-02-08T00:57:10.151Z,-2.43
2018-02-08T00:58:10.122Z,-2.50
2018-02-08T00:59:10.137Z,-2.49
2018-02-08T01:00:10.097Z,-2.46
2018-02-08T01:01:10.977Z,-2.40
2018-02-08T01:02:10.058Z,-2.29
2018-02-08T01:03:10.066Z,-2.29
2018-02-08T01:04:10.060Z,-2.26
2018-02-08T01:05:10.071Z,-2.34
2018-02-08T01:06:10.095Z,-2.48
2018-02-08T01:07:10.039Z,-2.46
2018-02-08T01:08:10.055Z,-2.49
2018-02-08T01:09:10.029Z,-2.48
2018-02-08T01:10:10.034Z,-2.40
2018-02-08T01:11:10.094Z,-2.30
2018-02-08T01:12:10.070Z,-2.40
2018-02-08T01:13:10.039Z,-2.34
2018-02-08T01:14:10.478Z,-2.50
2018-02-08T01:15:10.067Z,-2.46
2018-02-08T01:16:10.049Z,-2.52
2018-02-08T01:17:10.008Z,-2.73
2018-02-08T01:18:10.010Z,-2.67
2018-02-08T01:19:10.039Z,-2.70
2018-02-08T01:20:09.999Z,-2.77
2018-02-08T01:21:09.976Z,-2.66
2018-02-08T01:22:09.997Z,-2.70
2018-02-08T01:23:09.994Z,-2.67
2018-02-08T01:24:10.021Z,-2.70
2018-02-08T01:25:10.006Z,-2.68
2018-02-08T01:26:09.992Z,-2.77
2018-02-08T01:27:09.978Z,-2.73
2018-02-08T01:28:10.012Z,-2.70
2018-02-08T01:29:09.940Z,-2.68
2018-02-08T01:30:09.953Z,-2.68
2018-02-08T01:31:09.999Z,-2.71
2018-02-08T01:32:09.958Z,-2.70
2018-02-08T01:33:09.977Z,-2.78
2018-02-08T01:34:09.916Z,-2.61
2018-02-08T01:35:10.005Z,-2.70
2018-02-08T01:36:09.916Z,-2.71
2018-02-08T01:37:09.909Z,-2.70
2018-02-08T01:38:09.951Z,-2.79
2018-02-08T01:39:09.910Z,-2.78
2018-02-08T01:40:09.891Z,-2.66
2018-02-08T01:41:09.913Z,-2.61
2018-02-08T01:42:09.895Z,-2.70
2018-02-08T01:43:09.887Z,-2.64
2018-02-08T01:44:09.918Z,-2.66
2018-02-08T01:45:09.861Z,-2.73
2018-02-08T01:46:09.905Z,-2.77
2018-02-08T01:47:09.885Z,-2.74
2018-02-08T01:48:10.485Z,-2.78
2018-02-08T01:49:09.866Z,-2.86
2018-02-08T01:50:09.880Z,-2.85
2018-02-08T01:51:09.871Z,-2.89
2018-02-08T01:52:09.880Z,-2.92
2018-02-08T01:53:09.864Z,-2.97
2018-02-08T01:54:09.825Z,-2.91
2018-02-08T01:55:09.897Z,-2.99
2018-02-08T01:56:09.816Z,-2.94
2018-02-08T01:57:09.811Z,-2.99
2018-02-08T01:58:09.805Z,-3.03
2018-02-08T01:59:09.852Z,-2.89
2018-02-08T02:00:09.823Z,-2.91
2018-02-08T02:01:09.925Z,-3.02
2018-02-08T02:02:09.785Z,-3.02
2018-02-08T02:03:09.796Z,-3.06
2018-02-08T02:04:09.777Z,-2.97
2018-02-08T02:05:09.774Z,-2.94
2018-02-08T02:06:09.811Z,-2.88
2018-02-08T02:07:09.814Z,-2.84
2018-02-08T02:08:09.853Z,-2.77
2018-02-08T02:09:09.778Z,-2.81
2018-02-08T02:10:09.752Z,-2.86
2018-02-08T02:11:09.755Z,-2.96
2018-02-08T02:12:09.789Z,-3.02
2018-02-08T02:13:09.764Z,-3.09
2018-02-08T02:14:09.732Z,-3.06
2018-02-08T02:15:09.715Z,-3.10
2018-02-08T02:16:09.720Z,-3.15
2018-02-08T02:17:09.720Z,-3.07
2018-02-08T02:18:09.781Z,-3.05
2018-02-08T02:19:09.722Z,-3.20
2018-02-08T02:20:09.739Z,-3.07
2018-02-08T02:21:09.700Z,-3.20
2018-02-08T02:22:09.714Z,-3.14
2018-02-08T02:23:09.691Z,-3.02
2018-02-08T02:24:09.759Z,-3.06
2018-02-08T02:25:09.723Z,-2.99
2018-02-08T02:26:09.678Z,-2.96
2018-02-08T02:27:09.690Z,-2.99
2018-02-08T02:28:09.687Z,-3.00
2018-02-08T02:29:09.663Z,-3.05
2018-02-08T02:30:09.712Z,-3.00
2018-02-08T02:31:09.712Z,-2.94
2018-02-08T02:32:09.642Z,-3.03
2018-02-08T02:33:09.693Z,-3.00
2018-02-08T02:34:09.680Z,-3.05
2018-02-08T02:35:09.654Z,-2.89
2018-02-08T02:36:09.675Z,-2.89
2018-02-08T02:37:09.638Z,-2.91
2018-02-08T02:38:09.627Z,-2.99
2018-02-08T02:39:09.616Z,-3.03
2018-02-08T02:40:09.598Z,-3.07
2018-02-08T02:41:09.616Z,-3.00
2018-02-08T02:42:09.659Z,-3.07
2018-02-08T02:43:09.610Z,-3.00
2018-02-08T02:44:09.657Z,-3.07
2018-02-08T02:45:09.643Z,-3.17
2018-02-08T02:46:09.576Z,-3.10
2018-02-08T02:47:09.636Z,-3.15
2018-02-08T02:48:09.570Z,-3.10
2018-02-08T02:49:09.561Z,-3.14
2018-02-08T02:50:09.575Z,-3.17
2018-02-08T02:51:09.577Z,-3.09
2018-02-08T02:52:09.559Z,-3.21
2018-02-08T02:53:09.549Z,-3.07
2018-02-08T02:54:09.574Z,-3.05
2018-02-08T02:55:09.562Z,-3.12
2018-02-08T02:56:09.595Z,-3.09
2018-02-08T02:57:09.541Z,-3.20
2018-02-08T02:58:09.557Z,-3.10
2018-02-08T02:59:09.562Z,-3.17
2018-02-08T03:00:09.561Z,-3.23
2018-02-08T03:01:09.554Z,-3.30
2018-02-08T03:02:09.517Z,-3.14
2018-02-08T03:03:09.507Z,-3.14
2018-02-08T03:04:09.551Z,-3.21
2018-02-08T03:05:09.494Z,-3.10
2018-02-08T03:06:09.506Z,-3.24
2018-02-08T03:07:09.499Z,-3.24
2018-02-08T03:08:09.488Z,-3.36
2018-02-08T03:09:09.474Z,-3.21
2018-02-08T03:10:09.492Z,-3.33
2018-02-08T03:11:09.513Z,-3.28
2018-02-08T03:12:09.488Z,-3.33
2018-02-08T03:13:09.488Z,-3.42
2018-02-08T03:14:09.445Z,-3.31
2018-02-08T03:15:09.472Z,-3.27
2018-02-08T03:16:09.440Z,-3.24
2018-02-08T03:17:09.504Z,-3.27
2018-02-08T03:18:09.425Z,-3.25
2018-02-08T03:19:09.458Z,-3.27
2018-02-08T03:20:09.413Z,-3.36
2018-02-08T03:21:09.426Z,-3.30
2018-02-08T03:22:09.991Z,-3.27
2018-02-08T03:23:09.422Z,-3.23
2018-02-08T03:24:09.445Z,-3.20
2018-02-08T03:25:09.403Z,-3.27
2018-02-08T03:26:09.427Z,-3.30
2018-02-08T03:27:09.381Z,-3.25
2018-02-08T03:28:09.400Z,-3.33
2018-02-08T03:29:09.396Z,-3.23
2018-02-08T03:30:09.409Z,-3.35
2018-02-08T03:31:09.440Z,-3.28
2018-02-08T03:32:09.376Z,-3.28
2018-02-08T03:33:09.408Z,-3.28
2018-02-08T03:34:09.369Z,-3.31
2018-02-08T03:35:09.375Z,-3.33
2018-02-08T03:36:09.343Z,-3.23
2018-02-08T03:37:09.346Z,-3.25
2018-02-08T03:38:09.354Z,-3.31
2018-02-08T03:39:09.384Z,-3.25
2018-02-08T03:40:09.312Z,-3.24
2018-02-08T03:41:09.315Z,-3.24
2018-02-08T03:42:09.333Z,-3.28
2018-02-08T03:43:09.355Z,-3.20
2018-02-08T03:44:09.316Z,-3.12
2018-02-08T03:45:09.300Z,-3.20
2018-02-08T03:46:09.334Z,-3.15
2018-02-08T03:47:09.281Z,-3.12
2018-02-08T03:48:09.294Z,-3.10
2018-02-08T03:49:09.316Z,-3.12
2018-02-08T03:50:09.275Z,-3.21
2018-02-08T03:51:09.292Z,-3.21
2018-02-08T03:52:09.301Z,-3.17
2018-02-08T03:53:09.273Z,-3.23
2018-02-08T03:54:09.260Z,-3.17
2018-02-08T03:55:09.244Z,-3.17
2018-02-08T03:56:09.269Z,-3.20
2018-02-08T03:57:09.301Z,-3.30
2018-02-08T03:58:09.239Z,-3.33
2018-02-08T03:59:09.257Z,-3.31
2018-02-08T04:00:09.241Z,-3.25
2018-02-08T04:01:09.259Z,-3.31
2018-02-08T04:02:09.227Z,-3.33
2018-02-08T04:03:09.249Z,-3.20
2018-02-08T04:04:09.262Z,-3.21
2018-02-08T04:05:09.222Z,-3.24
2018-02-08T04:06:09.189Z,-3.39
2018-02-08T04:07:09.230Z,-3.43
2018-02-08T04:08:09.206Z,-3.43
2018-02-08T04:09:09.215Z,-3.48
2018-02-08T04:10:09.198Z,-3.39
2018-02-08T04:11:09.163Z,-3.33
2018-02-08T04:12:09.296Z,-3.43
2018-02-08T04:13:09.187Z,-3.36
2018-02-08T04:14:09.223Z,-3.41
2018-02-08T04:15:09.247Z,-3.41
2018-02-08T04:16:09.145Z,-3.48
2018-02-08T04:17:09.139Z,-3.41
2018-02-08T04:18:09.169Z,-3.36
2018-02-08T04:19:09.138Z,-3.36
2018-02-08T04:20:09.119Z,-3.27
2018-02-08T04:21:09.112Z,-3.36
2018-02-08T04:22:09.152Z,-3.31
2018-02-08T04:23:09.137Z,-3.38
2018-02-08T04:24:09.164Z,-3.36
2018-02-08T04:25:09.161Z,-3.38
2018-02-08T04:26:09.097Z,-3.38
2018-02-08T04:27:09.117Z,-3.42
2018-02-08T04:28:09.096Z,-3.48
2018-02-08T04:29:09.087Z,-3.53
2018-02-08T04:30:09.144Z,-3.46
2018-02-08T04:31:09.097Z,-3.49
2018-02-08T04:32:09.059Z,-3.59
2018-02-08T04:33:09.123Z,-3.60
2018-02-08T04:34:09.093Z,-3.62
2018-02-08T04:35:09.056Z,-3.66
2018-02-08T04:36:09.037Z,-3.62
2018-02-08T04:37:09.108Z,-3.64
2018-02-08T04:38:09.074Z,-3.62
2018-02-08T04:39:09.066Z,-3.48
2018-02-08T04:40:09.055Z,-3.60
2018-02-08T04:41:09.985Z,-3.62
2018-02-08T04:42:09.026Z,-3.63
2018-02-08T04:43:09.067Z,-3.64
2018-02-08T04:44:09.042Z,-3.53
2018-02-08T04:45:09.026Z,-3.54
2018-02-08T04:46:08.997Z,-3.54
2018-02-08T04:47:09.059Z,-3.53
2018-02-08T04:48:08.985Z,-3.56
2018-02-08T04:49:09.047Z,-3.54
2018-02-08T04:50:08.976Z,-3.57
2018-02-08T04:51:09.009Z,-3.45
2018-02-08T04:52:08.973Z,-3.46
2018-02-08T04:53:08.984Z,-3.42
2018-02-08T04:54:08.972Z,-3.39
2018-02-08T04:55:09.000Z,-3.41
2018-02-08T04:56:08.965Z,-3.42
2018-02-08T04:57:08.944Z,-3.41
2018-02-08T04:58:08.956Z,-3.43
2018-02-08T04:59:08.979Z,-3.43
2018-02-08T05:00:08.970Z,-3.46
2018-02-08T05:01:08.917Z,-3.59
2018-02-08T05:02:08.955Z,-3.48
2018-02-08T05:03:08.906Z,-3.54
2018-02-08T05:04:08.913Z,-3.54
2018-02-08T05:05:08.982Z,-3.53
2018-02-08T05:06:08.973Z,-3.60
2018-02-08T05:07:08.913Z,-3.59
2018-02-08T05:08:08.905Z,-3.57
2018-02-08T05:09:08.887Z,-3.52
2018-02-08T05:10:08.896Z,-3.71
2018-02-08T05:11:08.909Z,-3.62
2018-02-08T05:12:08.883Z,-3.62
2018-02-08T05:13:08.885Z,-3.62
2018-02-08T05:14:08.908Z,-3.54
2018-02-08T05:15:08.989Z,-3.56
2018-02-08T05:16:08.874Z,-3.60
2018-02-08T05:17:08.885Z,-3.57
2018-02-08T05:18:08.844Z,-3.53
2018-02-08T05:19:08.893Z,-3.57
2018-02-08T05:20:08.859Z,-3.62
2018-02-08T05:21:08.813Z,-3.63
2018-02-08T05:22:08.828Z,-3.64
2018-02-08T05:23:08.842Z,-3.75
2018-02-08T05:24:08.832Z,-3.82
2018-02-08T05:25:08.818Z,-3.82
2018-02-08T05:26:08.878Z,-3.79
2018-02-08T05:27:08.838Z,-3.85
2018-02-08T05:28:09.489Z,-3.81
2018-02-08T05:29:08.853Z,-3.91
2018-02-08T05:30:08.791Z,-3.86
2018-02-08T05:31:08.769Z,-3.83
2018-02-08T05:32:08.766Z,-3.79
2018-02-08T05:33:08.835Z,-3.67
2018-02-08T05:34:08.834Z,-3.62
2018-02-08T05:35:08.748Z,-3.53
2018-02-08T05:36:08.802Z,-3.64
2018-02-08T05:37:08.799Z,-3.60
2018-02-08T05:38:08.738Z,-3.59
2018-02-08T05:39:08.783Z,-3.49
2018-02-08T05:40:08.787Z,-3.63
2018-02-08T05:41:08.797Z,-3.79
2018-02-08T05:42:08.765Z,-3.81
2018-02-08T05:43:08.710Z,-3.71
2018-02-08T05:44:08.764Z,-3.69
2018-02-08T05:45:08.701Z,-3.78
2018-02-08T05:46:08.700Z,-3.83
2018-02-08T05:47:08.681Z,-3.69
2018-02-08T05:48:08.723Z,-3.78
2018-02-08T05:49:08.725Z,-3.81
2018-02-08T05:50:08.679Z,-3.85
2018-02-08T05:51:08.670Z,-3.81
2018-02-08T05:52:08.698Z,-3.62
2018-02-08T05:53:08.714Z,-3.79
2018-02-08T05:54:08.660Z,-3.88
2018-02-08T05:55:08.693Z,-3.85
2018-02-08T05:56:08.662Z,-3.79
2018-02-08T05:57:08.661Z,-3.81
2018-02-08T05:58:08.652Z,-3.83
2018-02-08T05:59:08.621Z,-3.96
2018-02-08T06:00:08.657Z,-3.91
2018-02-08T06:01:08.621Z,-3.79
2018-02-08T06:02:08.800Z,-3.81
2018-02-08T06:03:08.632Z,-3.82
2018-02-08T06:04:08.644Z,-3.79
2018-02-08T06:05:08.643Z,-3.81
2018-02-08T06:06:08.620Z,-3.93
2018-02-08T06:07:08.626Z,-3.99
2018-02-08T06:08:08.603Z,-3.94
2018-02-08T06:09:08.626Z,-3.97
2018-02-08T06:10:08.664Z,-3.91
2018-02-08T06:11:08.566Z,-3.82
2018-02-08T06:12:08.602Z,-3.97
2018-02-08T06:13:08.574Z,-3.96
2018-02-08T06:14:08.573Z,-3.97
2018-02-08T06:15:08.545Z,-3.93
2018-02-08T06:16:08.541Z,-3.94
2018-02-08T06:17:08.585Z,-4.00
2018-02-08T06:18:08.583Z,-3.99
2018-02-08T06:19:08.518Z,-3.93
2018-02-08T06:20:08.549Z,-3.96
2018-02-08T06:21:08.530Z,-3.97
2018-02-08T06:22:08.564Z,-4.01
2018-02-08T06:23:08.534Z,-4.07
2018-02-08T06:24:09.941Z,-3.94
2018-02-08T06:25:08.509Z,-3.86
2018-02-08T06:26:08.480Z,-3.91
2018-02-08T06:27:08.537Z,-3.93
2018-02-08T06:28:08.475Z,-3.85
2018-02-08T06:29:08.520Z,-3.85
2018-02-08T06:30:08.500Z,-3.88
2018-02-08T06:31:09.485Z,-3.78
2018-02-08T06:32:08.532Z,-3.85
2018-02-08T06:33:08.524Z,-3.85
2018-02-08T06:34:08.463Z,-3.99
2018-02-08T06:35:08.484Z,-3.91
2018-02-08T06:36:08.471Z,-4.03
2018-02-08T06:37:08.442Z,-3.90
2018-02-08T06:38:08.466Z,-3.88
2018-02-08T06:39:08.436Z,-3.83
2018-02-08T06:40:08.453Z,-3.88
2018-02-08T06:41:08.437Z,-3.86
2018-02-08T06:42:08.467Z,-3.85
2018-02-08T06:43:08.398Z,-3.94
2018-02-08T06:44:08.391Z,-3.85
2018-02-08T06:45:08.402Z,-3.86
2018-02-08T06:46:08.407Z,-3.86
2018-02-08T06:47:08.412Z,-3.91
2018-02-08T06:48:08.389Z,-3.86
2018-02-08T06:49:08.408Z,-3.90
2018-02-08T06:50:08.393Z,-3.83
2018-02-08T06:51:08.366Z,-3.90
2018-02-08T06:52:08.436Z,-3.88
2018-02-08T06:53:08.352Z,-3.86
2018-02-08T06:54:08.363Z,-3.82
2018-02-08T06:55:08.381Z,-3.90
2018-02-08T06:56:08.344Z,-3.83
2018-02-08T06:57:08.340Z,-3.83
2018-02-08T06:58:08.348Z,-3.97
2018-02-08T06:59:08.356Z,-3.97
2018-02-08T07:00:08.309Z,-4.00
2018-02-08T07:01:08.368Z,-3.93
2018-02-08T07:02:08.308Z,-3.83
2018-02-08T07:03:08.289Z,-3.94
2018-02-08T07:04:08.299Z,-3.79
2018-02-08T07:05:08.368Z,-3.82
2018-02-08T07:06:09.702Z,-3.83
2018-02-08T07:07:08.343Z,-3.64
2018-02-08T07:08:08.313Z,-3.67
2018-02-08T07:09:08.437Z,-3.76
2018-02-08T07:10:08.264Z,-3.76
2018-02-08T07:11:08.259Z,-3.64
2018-02-08T07:12:08.302Z,-3.66
2018-02-08T07:13:08.288Z,-3.59
2018-02-08T07:14:08.256Z,-3.59
2018-02-08T07:15:08.270Z,-3.59
2018-02-08T07:16:08.272Z,-3.53
2018-02-08T07:17:09.263Z,-3.53
2018-02-08T07:18:08.516Z,-3.42
2018-02-08T07:19:08.317Z,-3.28
2018-02-08T07:20:08.200Z,-3.24
2018-02-08T07:21:08.250Z,-3.21
2018-02-08T07:22:08.301Z,-3.31
2018-02-08T07:23:08.213Z,-3.27
2018-02-08T07:24:08.215Z,-3.27
2018-02-08T07:25:08.249Z,-3.31
2018-02-08T07:26:08.196Z,-3.33
2018-02-08T07:27:08.232Z,-3.33
2018-02-08T07:28:08.173Z,-3.41
2018-02-08T07:29:08.205Z,-3.33
2018-02-08T07:30:08.230Z,-3.21
2018-02-08T07:31:08.239Z,-3.17
2018-02-08T07:32:08.177Z,-3.10
2018-02-08T07:33:08.192Z,-3.07
2018-02-08T07:34:08.138Z,-3.15
2018-02-08T07:35:08.128Z,-3.07
2018-02-08T07:36:08.128Z,-3.00
2018-02-08T07:37:08.119Z,-2.94
2018-02-08T07:38:08.116Z,-2.92
2018-02-08T07:39:08.221Z,-2.88
2018-02-08T07:40:08.163Z,-2.89
2018-02-08T07:41:08.144Z,-2.79
2018-02-08T07:42:08.089Z,-2.68
2018-02-08T07:43:09.080Z,-2.78
2018-02-08T07:44:08.084Z,-2.81
2018-02-08T07:45:08.086Z,-2.84
2018-02-08T07:46:08.134Z,-2.78
2018-02-08T07:47:08.119Z,-2.73
2018-02-08T07:48:08.104Z,-2.84
2018-02-08T07:49:08.998Z,-2.70
2018-02-08T07:50:08.066Z,-2.48
2018-02-08T07:51:08.063Z,-2.23
2018-02-08T07:52:08.113Z,-2.06
2018-02-08T07:53:08.152Z,-1.73
2018-02-08T07:54:08.054Z,-1.61
2018-02-08T07:55:08.071Z,-1.41
2018-02-08T07:56:08.062Z,-1.15
2018-02-08T07:57:08.079Z,-1.07
2018-02-08T07:58:08.076Z,-0.97
2018-02-08T07:59:08.086Z,-0.64
2018-02-08T08:00:08.063Z,-0.34
2018-02-08T08:01:08.077Z,-0.07
2018-02-08T08:02:08.091Z,0.04
2018-02-08T08:03:08.494Z,0.32
2018-02-08T08:04:08.001Z,0.79
2018-02-08T08:05:08.011Z,0.91
2018-02-08T08:06:08.022Z,1.18
2018-02-08T08:07:08.053Z,1.98
2018-02-08T08:08:07.993Z,2.57
2018-02-08T08:09:07.985Z,2.75
2018-02-08T08:10:08.038Z,2.89
2018-02-08T08:11:07.970Z,3.18
2018-02-08T08:12:08.051Z,3.43
2018-02-08T08:13:08.030Z,3.42
2018-02-08T08:14:08.082Z,3.10
2018-02-08T08:15:07.977Z,2.75
2018-02-08T08:16:08.070Z,2.56
2018-02-08T08:17:08.106Z,2.36
2018-02-08T08:18:08.270Z,2.03
2018-02-08T08:19:08.112Z,1.65
2018-02-08T08:20:08.195Z,1.60
2018-02-08T08:21:16.284Z,1.54
2018-02-08T08:22:08.041Z,2.06
2018-02-08T08:23:08.004Z,3.14
2018-02-08T08:24:08.057Z,3.91
2018-02-08T08:25:08.022Z,3.97
2018-02-08T08:26:08.077Z,4.06
2018-02-08T08:27:08.284Z,3.69
2018-02-08T08:28:09.378Z,3.36
2018-02-08T08:29:08.184Z,3.13
2018-02-08T08:31:09.850Z,3.10
2018-02-08T08:32:08.312Z,3.28
2018-02-08T08:33:08.348Z,3.73
2018-02-08T08:34:07.990Z,3.87
2018-02-08T08:35:08.098Z,4.33
2018-02-08T08:36:09.123Z,4.60
2018-02-08T08:37:08.082Z,4.94
2018-02-08T08:38:08.169Z,5.20
2018-02-08T08:39:16.061Z,5.35
2018-02-08T08:40:09.460Z,5.20
2018-02-08T08:41:16.768Z,4.59
2018-02-08T08:42:13.485Z,3.33
2018-02-08T08:43:18.900Z,2.24
2018-02-08T08:44:15.829Z,1.93
2018-02-08T08:45:11.398Z,2.17
2018-02-08T08:46:09.835Z,1.86
2018-02-08T08:47:07.977Z,1.87
2018-02-08T08:48:08.015Z,1.91
2018-02-08T08:49:09.411Z,1.70
2018-02-08T08:50:08.443Z,1.52
2018-02-08T08:51:07.936Z,1.68
2018-02-08T08:52:07.956Z,1.95
2018-02-08T08:53:07.985Z,2.12
2018-02-08T08:54:07.924Z,2.07
2018-02-08T08:55:07.933Z,1.66
2018-02-08T08:56:08.071Z,1.45
2018-02-08T08:57:07.979Z,1.44
2018-02-08T08:58:08.200Z,1.22
2018-02-08T08:59:08.243Z,1.24
2018-02-08T09:00:08.053Z,1.14
2018-02-08T09:01:07.953Z,0.98
2018-02-08T09:02:08.277Z,1.11
2018-02-08T09:03:08.742Z,1.20
2018-02-08T09:04:09.020Z,1.14
2018-02-08T09:05:08.635Z,1.16
2018-02-08T09:06:12.028Z,1.29
2018-02-08T09:07:08.213Z,1.63
2018-02-08T09:08:08.864Z,1.62
2018-02-08T09:09:09.235Z,1.27
2018-02-08T09:10:08.463Z,0.75
2018-02-08T09:11:09.072Z,0.50
2018-02-08T09:12:08.186Z,0.49
2018-02-08T09:13:08.022Z,0.68
2018-02-08T09:14:08.014Z,1.14
2018-02-08T09:15:08.006Z,2.34
2018-02-08T09:16:07.947Z,2.66
2018-02-08T09:17:07.980Z,2.85
2018-02-08T09:18:07.930Z,2.75
2018-02-08T09:19:08.015Z,2.39
2018-02-08T09:20:07.963Z,1.93
2018-02-08T09:21:07.996Z,1.69
2018-02-08T09:22:07.915Z,2.09
2018-02-08T09:23:08.009Z,2.41
2018-02-08T09:24:07.952Z,2.18
2018-02-08T09:25:08.132Z,2.18
2018-02-08T09:26:07.936Z,2.06
2018-02-08T09:27:07.932Z,2.41
2018-02-08T09:28:07.928Z,2.49
2018-02-08T09:29:07.960Z,2.63
2018-02-08T09:30:08.774Z,2.49
2018-02-08T09:31:07.951Z,2.54
2018-02-08T09:32:07.920Z,2.77
2018-02-08T09:33:07.891Z,2.60
2018-02-08T09:34:07.955Z,2.64
2018-02-08T09:35:08.510Z,2.71
2018-02-08T09:36:07.898Z,3.45
2018-02-08T09:37:07.884Z,4.37
2018-02-08T09:38:07.932Z,5.68
2018-02-08T09:39:07.891Z,6.21
2018-02-08T09:40:07.918Z,6.99
2018-02-08T09:41:07.902Z,7.10
2018-02-08T09:42:07.918Z,6.01
2018-02-08T09:43:07.965Z,4.82
2018-02-08T09:44:07.917Z,4.36
2018-02-08T09:45:07.875Z,3.48
2018-02-08T09:46:07.941Z,3.10
2018-02-08T09:47:07.890Z,3.90
2018-02-08T09:48:08.604Z,5.21
2018-02-08T09:49:07.903Z,6.03
2018-02-08T09:50:07.889Z,6.56
2018-02-08T09:51:07.936Z,6.64
2018-02-08T09:52:07.898Z,6.77
2018-02-08T09:53:07.912Z,6.76
2018-02-08T09:54:07.887Z,7.32
2018-02-08T09:55:07.901Z,7.07
2018-02-08T09:56:07.934Z,7.03
2018-02-08T09:57:08.052Z,7.05
2018-02-08T09:58:08.144Z,7.27
2018-02-08T09:59:07.915Z,7.40
2018-02-08T10:00:07.890Z,7.46
2018-02-08T10:01:07.941Z,6.98
2018-02-08T10:02:08.597Z,6.76
2018-02-08T10:03:07.948Z,6.55
2018-02-08T10:04:07.916Z,6.01
2018-02-08T10:05:07.931Z,6.70
2018-02-08T10:06:08.080Z,6.77
2018-02-08T10:07:07.917Z,6.18
2018-02-08T10:08:07.917Z,6.01
2018-02-08T10:09:08.003Z,5.86
2018-02-08T10:10:07.953Z,4.84
2018-02-08T10:11:08.024Z,4.11
2018-02-08T10:12:07.986Z,3.61
2018-02-08T10:13:07.962Z,3.21
2018-02-08T10:14:07.935Z,2.74
2018-02-08T10:15:07.941Z,2.57
2018-02-08T10:16:07.992Z,2.57
2018-02-08T10:17:07.942Z,2.64
2018-02-08T10:18:07.991Z,2.57
2018-02-08T10:19:08.014Z,2.54
2018-02-08T10:20:08.121Z,2.60
2018-02-08T10:21:07.996Z,2.69
2018-02-08T10:22:07.954Z,2.78
2018-02-08T10:23:07.958Z,2.93
2018-02-08T10:24:08.064Z,3.13
2018-02-08T10:25:07.990Z,2.85
2018-02-08T10:26:07.957Z,3.03
2018-02-08T10:27:07.943Z,3.73
2018-02-08T10:28:07.972Z,4.60
2018-02-08T10:29:08.525Z,5.09
2018-02-08T10:30:07.976Z,5.49
2018-02-08T10:31:08.003Z,4.91
2018-02-08T10:32:07.951Z,4.99
2018-02-08T10:33:08.000Z,4.96
2018-02-08T10:34:08.003Z,5.28
2018-02-08T10:35:07.999Z,5.86
2018-02-08T10:36:08.031Z,6.44
2018-02-08T10:37:08.535Z,6.14
2018-02-08T10:38:07.968Z,5.86
2018-02-08T10:39:08.025Z,5.43
2018-02-08T10:40:08.027Z,5.00
2018-02-08T10:41:08.538Z,5.75
2018-02-08T10:42:07.966Z,6.15
2018-02-08T10:43:08.044Z,6.06
2018-02-08T10:44:07.970Z,5.90
2018-02-08T10:45:08.002Z,5.79
2018-02-08T10:46:08.005Z,5.90
2018-02-08T10:47:08.532Z,6.77
2018-02-08T10:48:08.017Z,7.42
2018-02-08T10:49:07.985Z,7.71
2018-02-08T10:50:08.087Z,8.02
2018-02-08T10:51:07.982Z,7.05
2018-02-08T10:52:08.006Z,7.72
2018-02-08T10:53:08.305Z,8.43
2018-02-08T10:54:08.050Z,8.81
2018-02-08T10:55:08.000Z,9.18
2018-02-08T10:56:08.027Z,9.15
2018-02-08T10:57:08.055Z,9.46
2018-02-08T10:58:08.042Z,9.11
2018-02-08T10:59:08.093Z,9.20
2018-02-08T11:00:08.186Z,9.58
2018-02-08T11:01:08.060Z,9.78
2018-02-08T11:02:08.041Z,10.04
2018-02-08T11:03:08.061Z,10.17
2018-02-08T11:04:08.064Z,9.89
2018-02-08T11:05:08.039Z,9.15
2018-02-08T11:06:08.094Z,9.36
2018-02-08T11:07:08.137Z,9.46
2018-02-08T11:08:08.130Z,9.24
2018-02-08T11:09:08.114Z,9.40
2018-02-08T11:10:08.107Z,9.01
2018-02-08T11:11:09.542Z,9.40
2018-02-08T11:12:14.734Z,9.50
2018-02-08T11:13:10.302Z,9.29
2018-02-08T11:14:09.744Z,8.95
2018-02-08T11:15:09.216Z,9.04
2018-02-08T11:16:26.957Z,9.33
2018-02-08T11:17:09.420Z,8.84
2018-02-08T11:18:09.312Z,9.14
2018-02-08T11:19:08.611Z,8.84
2018-02-08T11:20:12.887Z,9.18
2018-02-08T11:21:08.106Z,9.20
2018-02-08T11:22:08.156Z,8.80
2018-02-08T11:23:08.155Z,9.08
2018-02-08T11:24:08.232Z,8.61
2018-02-08T11:25:08.121Z,8.76
2018-02-08T11:26:08.130Z,9.13
2018-02-08T11:27:08.204Z,9.57
2018-02-08T11:28:08.230Z,9.64
2018-02-08T11:29:08.397Z,9.87
2018-02-08T11:30:08.135Z,9.76
2018-02-08T11:31:08.190Z,8.94
2018-02-08T11:32:08.156Z,8.59
2018-02-08T11:33:08.209Z,8.12
2018-02-08T11:34:08.222Z,8.65
2018-02-08T11:35:08.284Z,9.10
2018-02-08T11:36:08.203Z,8.86
2018-02-08T11:37:08.234Z,8.16
2018-02-08T11:38:08.213Z,8.00
2018-02-08T11:39:08.195Z,7.55
2018-02-08T11:40:08.195Z,7.45
2018-02-08T11:41:08.243Z,7.13
2018-02-08T11:42:08.222Z,7.45
2018-02-08T11:43:08.285Z,8.08
2018-02-08T11:44:08.256Z,8.50
2018-02-08T11:45:08.264Z,8.23
2018-02-08T11:46:08.259Z,8.05
2018-02-08T11:47:08.269Z,7.86
2018-02-08T11:48:08.260Z,7.48
2018-02-08T11:49:08.268Z,6.87
2018-02-08T11:50:08.275Z,6.79
2018-02-08T11:51:08.327Z,7.15
2018-02-08T11:52:08.292Z,7.68
2018-02-08T11:53:08.261Z,7.39
2018-02-08T11:54:08.301Z,6.88
2018-02-08T11:55:08.318Z,6.69
2018-02-08T11:56:08.354Z,7.43
2018-02-08T11:57:08.365Z,8.00
2018-02-08T11:58:08.309Z,8.30
2018-02-08T11:59:08.444Z,8.74
2018-02-08T12:00:08.317Z,8.80
2018-02-08T12:01:08.344Z,8.63
2018-02-08T12:02:08.362Z,8.61
2018-02-08T12:03:08.344Z,8.38
2018-02-08T12:04:08.413Z,8.79
2018-02-08T12:05:08.356Z,8.59
2018-02-08T12:06:08.364Z,7.97
2018-02-08T12:07:08.349Z,8.19
2018-02-08T12:08:08.346Z,7.92
2018-02-08T12:09:08.434Z,7.77
2018-02-08T12:10:08.356Z,7.90
2018-02-08T12:11:08.361Z,7.77
2018-02-08T12:12:08.423Z,7.45
2018-02-08T12:13:08.417Z,7.61
2018-02-08T12:14:08.405Z,7.85
2018-02-08T12:15:08.397Z,7.69
2018-02-08T12:16:08.428Z,6.85
2018-02-08T12:17:08.401Z,6.61
2018-02-08T12:18:08.421Z,6.58
2018-02-08T12:19:09.073Z,6.37
2018-02-08T12:20:08.423Z,5.99
2018-02-08T12:21:08.441Z,5.15
2018-02-08T12:22:08.484Z,4.72
2018-02-08T12:23:08.416Z,4.52
2018-02-08T12:24:08.490Z,4.58
2018-02-08T12:25:08.467Z,4.52
2018-02-08T12:26:08.474Z,4.78
2018-02-08T12:27:08.437Z,4.60
2018-02-08T12:28:08.452Z,4.48
2018-02-08T12:29:08.464Z,4.37
2018-02-08T12:30:08.442Z,4.16
2018-02-08T12:31:09.005Z,3.80
2018-02-08T12:32:09.077Z,3.93
2018-02-08T12:33:08.527Z,3.90
2018-02-08T12:34:08.452Z,3.84
2018-02-08T12:35:08.500Z,3.84
2018-02-08T12:36:08.588Z,3.90
2018-02-08T12:37:08.494Z,3.62
2018-02-08T12:38:08.481Z,3.50
2018-02-08T12:39:08.496Z,3.54
2018-02-08T12:40:08.465Z,3.68
2018-02-08T12:41:08.471Z,3.72
2018-02-08T12:42:08.544Z,3.94
2018-02-08T12:43:08.475Z,3.98
2018-02-08T12:44:08.474Z,3.97
2018-02-08T12:45:09.085Z,4.06
2018-02-08T12:46:08.474Z,4.09
2018-02-08T12:47:08.500Z,4.12
2018-02-08T12:48:09.082Z,3.94
2018-02-08T12:49:08.536Z,3.93
2018-02-08T12:50:08.551Z,3.93
2018-02-08T12:51:08.515Z,3.75
2018-02-08T12:52:08.534Z,3.65
2018-02-08T12:53:08.511Z,3.60
2018-02-08T12:54:08.508Z,3.31
2018-02-08T12:55:08.565Z,3.50
2018-02-08T12:56:08.558Z,3.54
2018-02-08T12:57:08.489Z,3.36
2018-02-08T12:58:09.088Z,3.45
2018-02-08T12:59:08.486Z,3.40
2018-02-08T13:00:08.490Z,3.50
2018-02-08T13:01:08.575Z,3.47
2018-02-08T13:02:08.582Z,3.52
2018-02-08T13:03:09.084Z,3.69